Time,TemperatureF,DewpointF,PressureIn,WindDirection,WindDirectionDegrees,WindSpeedMPH,WindSpeedGustMPH,Humidity,HourlyPrecipIn,Conditions,Clouds,dailyrainin,SolarRadiationWatts/m^2,SoftwareType,DateUTC
2013-08-08 00:01:00,72.5,68.1,30.05,NNE,21,1.0,1.0,86,0.00,,,0.00,0,Wunderground v.1.15,2013-08-08 04:01:00,
2013-08-08 00:09:00,72.5,68.4,30.05,North,360,1.0,1.0,87,0.00,,,0.00,0,Wunderground v.1.15,2013-08-08 04:09:00,
2013-08-08 00:11:00,72.5,68.4,30.05,North,360,1.0,1.0,87,0.00,,,0.00,0,Wunderground v.1.15,2013-08-08 04:11:00,
2013-08-08 00:19:00,72.5,68.4,30.05,North,360,1.0,1.0,87,0.00,,,0.00,0,Wunderground v.1.15,2013-08-08 04:19:00,
2013-08-08 00:29:00,72.3,68.5,30.05,North,360,0.0,0.0,88,0.00,,,0.00,0,Wunderground v.1.15,2013-08-08 04:29:00,
2013-08-08 00:38:00,72.1,68.7,30.05,North,360,0.0,0.0,89,0.00,,,0.00,0,Wunderground v.1.15,2013-08-08 04:38:00,
2013-08-08 00:47:00,72.1,68.7,30.04,North,360,1.0,1.0,89,0.00,,,0.00,0,Wunderground v.1.15,2013-08-08 04:47:00,
2013-08-08 00:56:00,72.0,68.9,30.04,North,360,1.0,1.0,90,0.00,,,0.00,0,Wunderground v.1.15,2013-08-08 04:56:00,
2013-08-08 01:07:00,71.8,68.7,30.03,NNE,25,1.0,1.0,90,0.00,,,0.00,0,Wunderground v.1.15,2013-08-08 05:07:00,
2013-08-08 01:12:00,71.8,68.7,30.03,NNE,24,1.0,1.0,90,0.00,,,0.00,0,Wunderground v.1.15,2013-08-08 05:12:00,
2013-08-08 01:17:00,71.8,68.7,30.03,NNE,26,0.0,0.0,90,0.00,,,0.00,0,Wunderground v.1.15,2013-08-08 05:17:00,
2013-08-08 01:25:00,71.8,68.7,30.03,NNE,22,0.0,3.0,90,0.00,,,0.00,0,Wunderground v.1.15,2013-08-08 05:25:00,
2013-08-08 01:31:00,71.8,68.7,30.03,North,360,0.0,1.0,90,0.00,,,0.00,0,Wunderground v.1.15,2013-08-08 05:31:00,
2013-08-08 01:37:00,71.8,68.7,30.03,North,360,0.0,0.0,90,0.00,,,0.00,0,Wunderground v.1.15,2013-08-08 05:37:00,
2013-08-08 01:45:00,71.8,68.7,30.03,North,360,0.0,0.0,90,0.00,,,0.01,0,Wunderground v.1.15,2013-08-08 05:45:00,
2013-08-08 01:51:00,71.8,68.7,30.03,North,360,0.0,2.0,90,0.00,,,0.01,0,Wunderground v.1.15,2013-08-08 05:51:00,
2013-08-08 01:57:00,71.8,68.7,30.03,North,360,0.0,0.0,90,0.00,,,0.01,0,Wunderground v.1.15,2013-08-08 05:57:00,
2013-08-08 02:05:00,71.8,69.0,30.03,North,360,0.0,0.0,91,0.00,,,0.02,0,Wunderground v.1.15,2013-08-08 06:05:00,
2013-08-08 02:11:00,71.8,69.0,30.03,North,360,0.0,0.0,91,0.00,,,0.02,0,Wunderground v.1.15,2013-08-08 06:11:00,
2013-08-08 02:17:00,71.8,69.0,30.02,NNE,26,0.0,0.0,91,0.00,,,0.02,0,Wunderground v.1.15,2013-08-08 06:17:00,
2013-08-08 02:23:00,71.8,69.3,30.02,North,360,0.0,0.0,92,0.00,,,0.02,0,Wunderground v.1.15,2013-08-08 06:23:00,
2013-08-08 02:31:00,71.6,69.2,30.02,North,360,0.0,2.0,92,0.00,,,0.02,0,Wunderground v.1.15,2013-08-08 06:31:00,
2013-08-08 02:37:00,71.6,69.2,30.02,North,360,0.0,2.0,92,0.00,,,0.02,0,Wunderground v.1.15,2013-08-08 06:37:00,
2013-08-08 02:43:00,71.6,69.2,30.02,North,360,0.0,0.0,92,0.00,,,0.02,0,Wunderground v.1.15,2013-08-08 06:43:00,
2013-08-08 02:48:00,71.6,69.2,30.02,North,360,0.0,0.0,92,0.00,,,0.02,0,Wunderground v.1.15,2013-08-08 06:48:00,
2013-08-08 02:54:00,71.6,69.5,30.02,North,360,0.0,0.0,93,0.00,,,0.02,0,Wunderground v.1.15,2013-08-08 06:54:00,
2013-08-08 03:00:00,71.6,69.5,30.02,North,360,0.0,0.0,93,0.00,,,0.02,0,Wunderground v.1.15,2013-08-08 07:00:00,
2013-08-08 03:06:00,71.5,69.4,30.02,North,360,0.0,3.0,93,0.00,,,0.02,0,Wunderground v.1.15,2013-08-08 07:06:00,
2013-08-08 03:13:00,71.5,69.4,30.02,North,360,2.0,5.0,93,0.00,,,0.02,0,Wunderground v.1.15,2013-08-08 07:13:00,
2013-08-08 03:18:00,71.3,69.2,30.02,North,360,2.0,5.0,93,0.00,,,0.03,0,Wunderground v.1.15,2013-08-08 07:18:00,
2013-08-08 03:24:00,71.3,69.2,30.02,North,360,1.0,2.0,93,0.00,,,0.03,0,Wunderground v.1.15,2013-08-08 07:24:00,
2013-08-08 03:30:00,71.3,69.2,30.02,North,360,0.0,0.0,93,0.00,,,0.03,0,Wunderground v.1.15,2013-08-08 07:30:00,
2013-08-08 03:36:00,71.3,69.2,30.02,North,360,0.0,0.0,93,0.00,,,0.03,0,Wunderground v.1.15,2013-08-08 07:36:00,
2013-08-08 03:43:00,71.3,69.2,30.02,North,360,0.0,2.0,93,0.00,,,0.03,0,Wunderground v.1.15,2013-08-08 07:43:00,
2013-08-08 03:48:00,71.3,69.2,30.02,NNE,24,0.0,2.0,93,0.00,,,0.03,0,Wunderground v.1.15,2013-08-08 07:48:00,
2013-08-08 03:54:00,71.1,69.0,30.02,North,360,1.0,1.0,93,0.00,,,0.03,0,Wunderground v.1.15,2013-08-08 07:54:00,
2013-08-08 04:00:00,70.8,68.7,30.01,NNE,22,1.0,1.0,93,0.00,,,0.03,0,Wunderground v.1.15,2013-08-08 08:00:00,
2013-08-08 04:06:00,70.4,68.3,30.01,NNE,26,1.0,1.0,93,0.00,,,0.03,0,Wunderground v.1.15,2013-08-08 08:06:00,
2013-08-08 04:11:00,70.3,67.9,30.01,North,360,0.0,0.0,92,0.00,,,0.03,0,Wunderground v.1.15,2013-08-08 08:11:00,
2013-08-08 04:17:00,70.1,67.7,30.02,NNE,24,0.0,1.0,92,0.00,,,0.03,0,Wunderground v.1.15,2013-08-08 08:17:00,
2013-08-08 04:24:00,70.1,67.7,30.02,NNE,24,1.0,1.0,92,0.00,,,0.03,0,Wunderground v.1.15,2013-08-08 08:24:00,
2013-08-08 04:29:00,70.1,67.7,30.02,North,360,0.0,1.0,92,0.00,,,0.03,0,Wunderground v.1.15,2013-08-08 08:29:00,
2013-08-08 04:35:00,70.1,67.7,30.02,NNE,24,0.0,0.0,92,0.00,,,0.03,0,Wunderground v.1.15,2013-08-08 08:35:00,
2013-08-08 04:41:00,69.9,67.5,30.02,NNE,24,0.0,1.0,92,0.00,,,0.03,0,Wunderground v.1.15,2013-08-08 08:41:00,
2013-08-08 04:47:00,69.9,67.5,30.02,NNE,24,0.0,1.0,92,0.00,,,0.03,0,Wunderground v.1.15,2013-08-08 08:47:00,
2013-08-08 04:54:00,70.1,68.0,30.02,NNE,24,0.0,0.0,93,0.00,,,0.03,0,Wunderground v.1.15,2013-08-08 08:54:00,
2013-08-08 04:59:00,70.1,68.0,30.02,NNE,24,0.0,0.0,93,0.00,,,0.03,0,Wunderground v.1.15,2013-08-08 08:59:00,
2013-08-08 05:05:00,70.1,68.0,30.01,NNE,24,0.0,0.0,93,0.00,,,0.03,0,Wunderground v.1.15,2013-08-08 09:05:00,
2013-08-08 05:11:00,70.1,68.0,30.01,NNE,24,0.0,0.0,93,0.00,,,0.03,0,Wunderground v.1.15,2013-08-08 09:11:00,
2013-08-08 05:17:00,70.1,68.0,30.02,NNE,24,0.0,0.0,93,0.00,,,0.03,0,Wunderground v.1.15,2013-08-08 09:17:00,
2013-08-08 05:23:00,70.1,68.0,30.02,NNE,24,0.0,0.0,93,0.00,,,0.03,0,Wunderground v.1.15,2013-08-08 09:23:00,
2013-08-08 05:31:00,70.3,68.2,30.02,North,360,0.0,0.0,93,0.00,,,0.03,0,Wunderground v.1.15,2013-08-08 09:31:00,
2013-08-08 05:37:00,70.3,68.2,30.02,NNE,24,0.0,1.0,93,0.00,,,0.03,0,Wunderground v.1.15,2013-08-08 09:37:00,
2013-08-08 05:43:00,70.4,68.6,30.02,North,360,0.0,0.0,94,0.00,,,0.03,0,Wunderground v.1.15,2013-08-08 09:43:00,
2013-08-08 05:48:00,70.4,68.6,30.02,NNE,24,0.0,0.0,94,0.00,,,0.03,0,Wunderground v.1.15,2013-08-08 09:48:00,
2013-08-08 05:54:00,70.4,68.6,30.02,North,360,0.0,0.0,94,0.00,,,0.03,0,Wunderground v.1.15,2013-08-08 09:54:00,
2013-08-08 06:00:00,70.4,68.6,30.02,North,360,0.0,2.0,94,0.00,,,0.03,0,Wunderground v.1.15,2013-08-08 10:00:00,
2013-08-08 06:06:00,70.4,68.6,30.02,NNE,24,0.0,2.0,94,0.00,,,0.03,0,Wunderground v.1.15,2013-08-08 10:06:00,
2013-08-08 06:14:00,70.6,68.8,30.02,North,360,0.0,0.0,94,0.00,,,0.03,0,Wunderground v.1.15,2013-08-08 10:14:00,
2013-08-08 06:20:00,70.6,68.8,30.02,North,360,0.0,0.0,94,0.00,,,0.03,5,Wunderground v.1.15,2013-08-08 10:20:00,
2013-08-08 06:26:00,70.6,68.8,30.02,NNE,24,0.0,0.0,94,0.00,,,0.03,7,Wunderground v.1.15,2013-08-08 10:26:00,
2013-08-08 06:35:00,70.6,68.8,30.02,NNE,24,0.0,0.0,94,0.00,,,0.03,11,Wunderground v.1.15,2013-08-08 10:35:00,
2013-08-08 06:40:00,70.6,68.8,30.02,NNE,24,0.0,0.0,94,0.00,,,0.03,26,Wunderground v.1.15,2013-08-08 10:40:00,
2013-08-08 06:46:00,70.8,69.0,30.03,NNE,24,0.0,0.0,94,0.00,,,0.03,51,Wunderground v.1.15,2013-08-08 10:46:00,
2013-08-08 06:53:00,70.8,69.0,30.03,NNE,22,0.0,0.0,94,0.00,,,0.03,77,Wunderground v.1.15,2013-08-08 10:53:00,
2013-08-08 06:58:00,71.1,69.3,30.03,North,360,0.0,0.0,94,0.00,,,0.03,54,Wunderground v.1.15,2013-08-08 10:58:00,
2013-08-08 07:04:00,71.3,69.5,30.03,NNE,24,0.0,0.0,94,0.00,,,0.03,35,Wunderground v.1.15,2013-08-08 11:04:00,
2013-08-08 07:09:00,71.3,69.5,30.03,North,360,0.0,0.0,94,0.00,,,0.03,33,Wunderground v.1.15,2013-08-08 11:09:00,
2013-08-08 07:15:00,71.5,69.7,30.02,NNE,24,0.0,0.0,94,0.00,,,0.03,32,Wunderground v.1.15,2013-08-08 11:15:00,
2013-08-08 07:21:00,71.6,69.8,30.02,North,360,0.0,0.0,94,0.00,,,0.03,47,Wunderground v.1.15,2013-08-08 11:21:00,
2013-08-08 07:27:00,71.8,70.0,30.02,NNE,19,0.0,0.0,94,0.00,,,0.03,77,Wunderground v.1.15,2013-08-08 11:27:00,
2013-08-08 07:34:00,72.0,70.2,30.02,NNE,19,0.0,0.0,94,0.00,,,0.03,91,Wunderground v.1.15,2013-08-08 11:34:00,
2013-08-08 07:39:00,72.1,70.0,30.02,North,360,1.0,2.0,93,0.00,,,0.03,79,Wunderground v.1.15,2013-08-08 11:39:00,
2013-08-08 07:45:00,72.3,70.2,30.02,NNE,27,1.0,1.0,93,0.00,,,0.03,58,Wunderground v.1.15,2013-08-08 11:45:00,
2013-08-08 07:51:00,72.3,69.8,30.02,NNE,28,1.0,1.0,92,0.00,,,0.03,91,Wunderground v.1.15,2013-08-08 11:51:00,
2013-08-08 07:57:00,72.5,70.0,30.02,NNE,28,1.0,1.0,92,0.00,,,0.03,84,Wunderground v.1.15,2013-08-08 11:57:00,
2013-08-08 08:05:00,72.5,70.0,30.03,NNE,30,0.0,1.0,92,0.00,,,0.03,60,Wunderground v.1.15,2013-08-08 12:05:00,
2013-08-08 08:11:00,72.7,70.2,30.03,North,360,0.0,0.0,92,0.00,,,0.03,105,Wunderground v.1.15,2013-08-08 12:11:00,
2013-08-08 08:17:00,72.8,70.0,30.03,North,360,0.0,1.0,91,0.00,,,0.03,125,Wunderground v.1.15,2013-08-08 12:17:00,
2013-08-08 08:23:00,73.0,69.9,30.03,North,360,0.0,2.0,90,0.00,,,0.03,113,Wunderground v.1.15,2013-08-08 12:23:00,
2013-08-08 08:29:00,73.2,70.1,30.03,North,360,0.0,2.0,90,0.00,,,0.03,104,Wunderground v.1.15,2013-08-08 12:29:00,
2013-08-08 08:34:00,73.3,69.9,30.03,North,360,0.0,0.0,89,0.00,,,0.03,84,Wunderground v.1.15,2013-08-08 12:34:00,
2013-08-08 08:40:00,73.5,70.1,30.03,North,360,0.0,0.0,89,0.00,,,0.03,102,Wunderground v.1.15,2013-08-08 12:40:00,
2013-08-08 08:46:00,73.5,69.7,30.03,North,360,0.0,0.0,88,0.00,,,0.03,113,Wunderground v.1.15,2013-08-08 12:46:00,
2013-08-08 08:53:00,73.7,69.9,30.03,North,360,0.0,0.0,88,0.00,,,0.03,120,Wunderground v.1.15,2013-08-08 12:53:00,
2013-08-08 08:59:00,73.9,70.1,30.03,North,360,0.0,2.0,88,0.00,,,0.03,167,Wunderground v.1.15,2013-08-08 12:59:00,
2013-08-08 09:05:00,74.2,70.1,30.03,North,360,0.0,0.0,87,0.00,,,0.03,206,Wunderground v.1.15,2013-08-08 13:05:00,
2013-08-08 09:10:00,74.2,70.1,30.03,North,360,0.0,2.0,87,0.00,,,0.03,155,Wunderground v.1.15,2013-08-08 13:10:00,
2013-08-08 09:17:00,74.6,70.1,30.03,NNE,28,0.0,2.0,86,0.00,,,0.03,207,Wunderground v.1.15,2013-08-08 13:17:00,
2013-08-08 09:23:00,74.7,69.9,30.03,North,360,0.0,0.0,85,0.00,,,0.03,248,Wunderground v.1.15,2013-08-08 13:23:00,
2013-08-08 09:28:00,75.3,70.5,30.03,North,360,0.0,1.0,85,0.00,,,0.03,301,Wunderground v.1.15,2013-08-08 13:28:00,
2013-08-08 09:35:00,75.6,70.1,30.03,North,360,0.0,2.0,83,0.00,,,0.03,123,Wunderground v.1.15,2013-08-08 13:35:00,
2013-08-08 09:40:00,75.6,70.1,30.03,North,360,1.0,2.0,83,0.00,,,0.03,91,Wunderground v.1.15,2013-08-08 13:40:00,
2013-08-08 09:46:00,75.6,70.1,30.03,North,360,1.0,1.0,83,0.00,,,0.03,72,Wunderground v.1.15,2013-08-08 13:46:00,
2013-08-08 09:52:00,75.6,69.7,30.03,North,360,0.0,0.0,82,0.00,,,0.03,199,Wunderground v.1.15,2013-08-08 13:52:00,
2013-08-08 09:58:00,75.8,69.9,30.03,North,360,0.0,1.0,82,0.00,,,0.03,165,Wunderground v.1.15,2013-08-08 13:58:00,
2013-08-08 10:05:00,76.0,70.1,30.03,North,360,0.0,0.0,82,0.00,,,0.03,135,Wunderground v.1.15,2013-08-08 14:05:00,
2013-08-08 10:12:00,76.0,70.1,30.03,North,360,0.0,0.0,82,0.00,,,0.03,207,Wunderground v.1.15,2013-08-08 14:12:00,
2013-08-08 10:18:00,76.1,70.2,30.03,North,360,1.0,2.0,82,0.00,,,0.03,193,Wunderground v.1.15,2013-08-08 14:18:00,
2013-08-08 10:25:00,76.1,70.2,30.03,North,360,0.0,1.0,82,0.00,,,0.03,135,Wunderground v.1.15,2013-08-08 14:25:00,
2013-08-08 10:30:00,76.1,70.2,30.03,North,360,0.0,1.0,82,0.00,,,0.03,91,Wunderground v.1.15,2013-08-08 14:30:00,
2013-08-08 10:36:00,76.3,70.4,30.03,NNE,21,0.0,0.0,82,0.00,,,0.03,77,Wunderground v.1.15,2013-08-08 14:36:00,
2013-08-08 10:42:00,76.3,70.4,30.03,North,360,0.0,0.0,82,0.00,,,0.03,127,Wunderground v.1.15,2013-08-08 14:42:00,
2013-08-08 10:48:00,76.1,70.2,30.03,North,360,1.0,3.0,82,0.00,,,0.03,130,Wunderground v.1.15,2013-08-08 14:48:00,
2013-08-08 10:55:00,76.3,70.8,30.03,North,360,1.0,2.0,83,0.00,,,0.03,153,Wunderground v.1.15,2013-08-08 14:55:00,
2013-08-08 11:00:00,76.3,70.8,30.02,NNE,19,0.0,0.0,83,0.00,,,0.03,200,Wunderground v.1.15,2013-08-08 15:00:00,
2013-08-08 11:06:00,76.5,70.9,30.02,NNE,28,0.0,1.0,83,0.00,,,0.03,193,Wunderground v.1.15,2013-08-08 15:06:00,
2013-08-08 11:12:00,76.5,70.9,30.02,North,360,1.0,1.0,83,0.00,,,0.03,200,Wunderground v.1.15,2013-08-08 15:12:00,
2013-08-08 11:18:00,76.8,70.9,30.02,North,360,0.0,1.0,82,0.00,,,0.03,153,Wunderground v.1.15,2013-08-08 15:18:00,
2013-08-08 11:24:00,76.8,70.5,30.02,NNE,29,0.0,1.0,81,0.00,,,0.03,200,Wunderground v.1.15,2013-08-08 15:24:00,
2013-08-08 11:31:00,77.0,70.7,30.02,North,360,0.0,2.0,81,0.00,,,0.03,165,Wunderground v.1.15,2013-08-08 15:31:00,
2013-08-08 11:38:00,77.2,70.9,30.02,North,360,1.0,3.0,81,0.00,,,0.03,257,Wunderground v.1.15,2013-08-08 15:38:00,
2013-08-08 11:44:00,77.4,71.1,30.02,NNE,27,1.0,1.0,81,0.00,,,0.03,197,Wunderground v.1.15,2013-08-08 15:44:00,
2013-08-08 11:49:00,77.4,70.7,30.02,North,360,1.0,1.0,80,0.00,,,0.03,144,Wunderground v.1.15,2013-08-08 15:49:00,
2013-08-08 11:56:00,77.6,70.9,30.02,North,360,1.0,1.0,80,0.00,,,0.03,171,Wunderground v.1.15,2013-08-08 15:56:00,
2013-08-08 12:02:00,77.7,71.0,30.02,North,360,1.0,1.0,80,0.00,,,0.03,276,Wunderground v.1.15,2013-08-08 16:02:00,
2013-08-08 12:07:00,77.9,70.9,30.02,North,360,1.0,1.0,79,0.00,,,0.03,267,Wunderground v.1.15,2013-08-08 16:07:00,
2013-08-08 12:15:00,78.5,71.4,30.01,NNE,26,1.0,1.0,79,0.00,,,0.03,332,Wunderground v.1.15,2013-08-08 16:15:00,
2013-08-08 12:21:00,78.6,70.8,30.01,North,360,1.0,1.0,77,0.00,,,0.03,125,Wunderground v.1.15,2013-08-08 16:21:00,
2013-08-08 12:27:00,79.0,70.4,30.01,NNE,23,0.0,1.0,75,0.00,,,0.03,142,Wunderground v.1.15,2013-08-08 16:27:00,
2013-08-08 12:34:00,79.2,70.6,30.01,North,360,0.0,0.0,75,0.00,,,0.03,79,Wunderground v.1.15,2013-08-08 16:34:00,
2013-08-08 12:39:00,79.2,70.2,30.01,North,360,0.0,3.0,74,0.00,,,0.03,81,Wunderground v.1.15,2013-08-08 16:39:00,
2013-08-08 12:45:00,79.0,70.4,30.02,North,360,1.0,1.0,75,0.00,,,0.03,63,Wunderground v.1.15,2013-08-08 16:45:00,
2013-08-08 12:51:00,78.8,70.6,30.02,North,360,0.0,0.0,76,0.00,,,0.03,120,Wunderground v.1.15,2013-08-08 16:51:00,
2013-08-08 12:57:00,78.8,70.6,30.02,North,360,1.0,2.0,76,0.00,,,0.03,216,Wunderground v.1.15,2013-08-08 16:57:00,
2013-08-08 13:05:00,79.2,71.0,30.02,North,360,1.0,1.0,76,0.00,,,0.03,241,Wunderground v.1.15,2013-08-08 17:05:00,
2013-08-08 13:11:00,79.6,71.0,30.02,North,360,0.0,0.0,75,0.00,,,0.03,102,Wunderground v.1.15,2013-08-08 17:11:00,
2013-08-08 13:17:00,79.9,71.3,30.02,North,360,0.0,0.0,75,0.00,,,0.03,111,Wunderground v.1.15,2013-08-08 17:17:00,
2013-08-08 13:23:00,80.1,70.7,30.02,North,360,0.0,2.0,73,0.00,,,0.03,141,Wunderground v.1.15,2013-08-08 17:23:00,
2013-08-08 13:29:00,80.1,70.7,30.02,North,360,1.0,2.0,73,0.00,,,0.03,151,Wunderground v.1.15,2013-08-08 17:29:00,
2013-08-08 13:35:00,80.3,70.9,30.02,NNE,24,1.0,2.0,73,0.00,,,0.03,211,Wunderground v.1.15,2013-08-08 17:35:00,
2013-08-08 13:41:00,80.5,71.4,30.02,NNE,24,0.0,1.0,74,0.00,,,0.03,241,Wunderground v.1.15,2013-08-08 17:41:00,
2013-08-08 13:46:00,80.7,70.8,30.02,NNE,24,0.0,1.0,72,0.00,,,0.03,151,Wunderground v.1.15,2013-08-08 17:46:00,
2013-08-08 13:55:00,80.9,71.0,30.02,NNE,26,1.0,3.0,72,0.00,,,0.03,404,Wunderground v.1.15,2013-08-08 17:55:00,
2013-08-08 14:01:00,81.1,71.2,30.01,NNE,26,1.0,1.0,72,0.00,,,0.03,399,Wunderground v.1.15,2013-08-08 18:01:00,
2013-08-08 14:06:00,81.6,70.9,30.01,NNE,26,0.0,1.0,70,0.00,,,0.03,306,Wunderground v.1.15,2013-08-08 18:06:00,
2013-08-08 14:13:00,82.0,70.4,30.01,North,360,0.0,1.0,68,0.00,,,0.03,183,Wunderground v.1.15,2013-08-08 18:13:00,
2013-08-08 14:18:00,82.2,71.0,30.01,North,360,0.0,1.0,69,0.00,,,0.03,262,Wunderground v.1.15,2013-08-08 18:18:00,
2013-08-08 14:24:00,82.6,71.0,30.01,North,360,0.0,0.0,68,0.00,,,0.03,216,Wunderground v.1.15,2013-08-08 18:24:00,
2013-08-08 14:30:00,82.6,70.5,30.01,NNE,21,1.0,4.0,67,0.00,,,0.03,213,Wunderground v.1.15,2013-08-08 18:30:00,
2013-08-08 14:36:00,82.2,70.6,30.01,North,360,2.0,6.0,68,0.00,,,0.03,239,Wunderground v.1.15,2013-08-08 18:36:00,
2013-08-08 14:44:00,82.6,71.4,30.01,NNE,25,2.0,2.0,69,0.00,,,0.03,504,Wunderground v.1.15,2013-08-08 18:44:00,
2013-08-08 14:50:00,83.0,70.9,30.00,North,360,2.0,2.0,67,0.00,,,0.03,773,Wunderground v.1.15,2013-08-08 18:50:00,
2013-08-08 14:56:00,83.4,70.8,30.00,North,360,2.0,2.0,66,0.00,,,0.03,527,Wunderground v.1.15,2013-08-08 18:56:00,
2013-08-08 15:04:00,84.1,70.6,30.00,North,360,1.0,2.0,64,0.00,,,0.03,165,Wunderground v.1.15,2013-08-08 19:04:00,
2013-08-08 15:10:00,84.0,71.4,30.00,North,360,1.0,1.0,66,0.00,,,0.03,550,Wunderground v.1.15,2013-08-08 19:10:00,
2013-08-08 15:16:00,84.1,71.1,30.00,North,360,1.0,1.0,65,0.00,,,0.03,165,Wunderground v.1.15,2013-08-08 19:16:00,
2013-08-08 15:23:00,84.0,71.0,30.00,North,360,1.0,1.0,65,0.00,,,0.03,104,Wunderground v.1.15,2013-08-08 19:23:00,
2013-08-08 15:28:00,83.8,70.8,30.00,North,360,1.0,4.0,65,0.00,,,0.03,40,Wunderground v.1.15,2013-08-08 19:28:00,
2013-08-08 15:34:00,83.2,71.1,30.00,North,360,1.0,3.0,67,0.00,,,0.03,16,Wunderground v.1.15,2013-08-08 19:34:00,
2013-08-08 15:40:00,82.2,72.3,30.00,North,360,2.0,2.0,72,0.82,,,0.07,18,Wunderground v.1.15,2013-08-08 19:40:00,
2013-08-08 15:46:00,80.7,72.8,30.00,North,360,2.0,2.0,77,0.83,,,0.16,30,Wunderground v.1.15,2013-08-08 19:46:00,
2013-08-08 15:52:00,79.6,73.3,30.00,North,360,1.0,1.0,81,0.88,,,0.27,58,Wunderground v.1.15,2013-08-08 19:52:00,
2013-08-08 15:58:00,78.8,73.2,30.00,North,360,0.0,0.0,83,0.45,,,0.33,130,Wunderground v.1.15,2013-08-08 19:58:00,
2013-08-08 16:04:00,78.5,73.6,30.00,North,360,0.0,0.0,85,0.17,,,0.34,211,Wunderground v.1.15,2013-08-08 20:04:00,
2013-08-08 16:09:00,78.5,74.0,30.00,North,360,0.0,0.0,86,0.07,,,0.34,232,Wunderground v.1.15,2013-08-08 20:09:00,
2013-08-08 16:16:00,78.1,74.3,30.00,NNE,19,0.0,1.0,88,0.04,,,0.34,190,Wunderground v.1.15,2013-08-08 20:16:00,
2013-08-08 16:24:00,78.6,75.8,30.00,NNE,17,0.0,1.0,91,0.00,,,0.34,418,Wunderground v.1.15,2013-08-08 20:24:00,
2013-08-08 16:30:00,78.3,75.5,30.00,NNE,19,1.0,6.0,91,0.00,,,0.35,200,Wunderground v.1.15,2013-08-08 20:30:00,
2013-08-08 16:36:00,78.3,75.5,29.99,North,360,1.0,6.0,91,0.00,,,0.35,148,Wunderground v.1.15,2013-08-08 20:36:00,
2013-08-08 16:42:00,78.5,75.7,29.99,North,360,1.0,2.0,91,0.00,,,0.35,290,Wunderground v.1.15,2013-08-08 20:42:00,
2013-08-08 16:47:00,78.5,75.7,29.99,North,360,2.0,3.0,91,0.00,,,0.35,269,Wunderground v.1.15,2013-08-08 20:47:00,
2013-08-08 16:53:00,78.3,75.1,29.99,NNE,24,2.0,3.0,90,0.00,,,0.35,111,Wunderground v.1.15,2013-08-08 20:53:00,
2013-08-08 16:59:00,77.9,74.7,29.99,North,360,3.0,3.0,90,0.00,,,0.35,70,Wunderground v.1.15,2013-08-08 20:59:00,
2013-08-08 17:05:00,77.7,74.5,29.99,NNE,24,2.0,4.0,90,0.00,,,0.35,200,Wunderground v.1.15,2013-08-08 21:05:00,
2013-08-08 17:12:00,77.9,75.1,29.99,NNE,22,1.0,2.0,91,0.00,,,0.35,130,Wunderground v.1.15,2013-08-08 21:12:00,
2013-08-08 17:17:00,77.7,74.5,29.99,North,360,1.0,5.0,90,0.00,,,0.35,40,Wunderground v.1.15,2013-08-08 21:17:00,
2013-08-08 17:23:00,77.4,73.9,29.99,NNE,24,3.0,3.0,89,0.00,,,0.35,86,Wunderground v.1.15,2013-08-08 21:23:00,
2013-08-08 17:29:00,76.8,73.3,29.99,NNE,24,3.0,3.0,89,0.00,,,0.35,146,Wunderground v.1.15,2013-08-08 21:29:00,
2013-08-08 17:35:00,77.0,73.5,30.00,NNE,24,3.0,4.0,89,0.00,,,0.35,162,Wunderground v.1.15,2013-08-08 21:35:00,
2013-08-08 17:42:00,77.2,73.7,30.00,NNE,25,2.0,4.0,89,0.00,,,0.35,128,Wunderground v.1.15,2013-08-08 21:42:00,
2013-08-08 17:47:00,76.8,72.6,30.00,NNE,19,3.0,9.0,87,0.00,,,0.35,70,Wunderground v.1.15,2013-08-08 21:47:00,
2013-08-08 17:53:00,76.7,72.2,30.00,North,360,2.0,3.0,86,0.00,,,0.35,19,Wunderground v.1.15,2013-08-08 21:53:00,
2013-08-08 17:59:00,76.1,71.3,30.00,North,360,2.0,3.0,85,0.00,,,0.35,11,Wunderground v.1.15,2013-08-08 21:59:00,
2013-08-08 18:18:00,75.6,71.5,30.01,North,360,1.0,2.0,87,0.09,,,0.37,28,Wunderground v.1.15,2013-08-08 22:18:00,
2013-08-08 18:24:00,75.4,71.6,30.01,North,360,1.0,1.0,88,0.11,,,0.38,53,Wunderground v.1.15,2013-08-08 22:24:00,
2013-08-08 18:33:00,74.9,71.4,30.00,North,360,0.0,1.0,89,0.04,,,0.38,39,Wunderground v.1.15,2013-08-08 22:33:00,
2013-08-08 18:40:00,74.7,71.2,30.00,North,360,0.0,0.0,89,0.00,,,0.38,26,Wunderground v.1.15,2013-08-08 22:40:00,
2013-08-08 18:46:00,74.6,71.5,29.99,North,360,0.0,0.0,90,0.00,,,0.38,30,Wunderground v.1.15,2013-08-08 22:46:00,
2013-08-08 18:52:00,74.4,71.3,29.99,North,360,0.0,0.0,90,0.00,,,0.38,18,Wunderground v.1.15,2013-08-08 22:52:00,
2013-08-08 19:00:00,74.4,71.3,30.00,North,360,0.0,0.0,90,0.00,,,0.38,16,Wunderground v.1.15,2013-08-08 23:00:00,
2013-08-08 19:06:00,74.4,71.6,30.00,North,360,0.0,0.0,91,0.00,,,0.38,11,Wunderground v.1.15,2013-08-08 23:06:00,
2013-08-08 19:12:00,74.4,71.6,30.00,North,360,0.0,0.0,91,0.00,,,0.38,9,Wunderground v.1.15,2013-08-08 23:12:00,
2013-08-08 19:18:00,74.4,71.9,30.00,North,360,0.0,0.0,92,0.00,,,0.38,7,Wunderground v.1.15,2013-08-08 23:18:00,
2013-08-08 19:24:00,74.4,71.9,30.00,North,360,0.0,0.0,92,0.00,,,0.38,11,Wunderground v.1.15,2013-08-08 23:24:00,
2013-08-08 19:30:00,74.4,71.9,30.01,North,360,1.0,1.0,92,0.00,,,0.38,0,Wunderground v.1.15,2013-08-08 23:30:00,
2013-08-08 19:36:00,74.2,71.7,30.01,North,360,1.0,1.0,92,0.00,,,0.38,0,Wunderground v.1.15,2013-08-08 23:36:00,
2013-08-08 19:42:00,74.0,71.5,30.01,North,360,1.0,3.0,92,0.00,,,0.38,0,Wunderground v.1.15,2013-08-08 23:42:00,
2013-08-08 19:53:00,74.0,71.8,30.00,North,360,0.0,1.0,93,0.12,,,0.40,0,Wunderground v.1.15,2013-08-08 23:53:00,
2013-08-08 19:59:00,74.0,71.8,30.00,North,360,0.0,0.0,93,0.10,,,0.41,0,Wunderground v.1.15,2013-08-08 23:59:00,
2013-08-08 20:05:00,74.0,71.8,29.99,North,360,0.0,0.0,93,0.05,,,0.41,0,Wunderground v.1.15,2013-08-09 00:05:00,
2013-08-08 20:13:00,73.9,71.7,29.99,North,360,0.0,0.0,93,0.00,,,0.41,0,Wunderground v.1.15,2013-08-09 00:13:00,
2013-08-08 20:19:00,73.9,71.7,29.99,North,360,0.0,0.0,93,0.00,,,0.41,0,Wunderground v.1.15,2013-08-09 00:19:00,
2013-08-08 20:33:00,73.7,71.9,29.99,North,360,0.0,0.0,94,0.00,,,0.41,0,Wunderground v.1.15,2013-08-09 00:33:00,
2013-08-08 20:39:00,73.7,71.9,29.99,North,360,0.0,0.0,94,0.00,,,0.41,0,Wunderground v.1.15,2013-08-09 00:39:00,
2013-08-08 20:45:00,73.5,71.7,30.00,North,360,0.0,0.0,94,0.00,,,0.41,0,Wunderground v.1.15,2013-08-09 00:45:00,
2013-08-08 20:52:00,73.5,71.7,30.00,North,360,0.0,0.0,94,0.00,,,0.41,0,Wunderground v.1.15,2013-08-09 00:52:00,
2013-08-08 20:57:00,73.5,71.7,30.00,North,360,0.0,0.0,94,0.00,,,0.41,0,Wunderground v.1.15,2013-08-09 00:57:00,
2013-08-08 21:03:00,73.5,71.7,30.00,North,360,0.0,0.0,94,0.00,,,0.41,0,Wunderground v.1.15,2013-08-09 01:03:00,
2013-08-08 21:08:00,73.5,72.0,30.00,North,360,0.0,0.0,95,0.00,,,0.41,0,Wunderground v.1.15,2013-08-09 01:08:00,
2013-08-08 21:14:00,73.7,72.2,30.00,North,360,0.0,0.0,95,0.00,,,0.41,0,Wunderground v.1.15,2013-08-09 01:14:00,
2013-08-08 21:20:00,73.7,72.2,30.00,North,360,0.0,0.0,95,0.00,,,0.41,0,Wunderground v.1.15,2013-08-09 01:20:00,
2013-08-08 21:26:00,73.5,72.0,30.00,North,360,0.0,0.0,95,0.00,,,0.41,0,Wunderground v.1.15,2013-08-09 01:26:00,
2013-08-08 21:33:00,73.5,72.0,30.00,North,360,0.0,0.0,95,0.00,,,0.41,0,Wunderground v.1.15,2013-08-09 01:33:00,
2013-08-08 21:38:00,73.5,72.0,30.00,North,360,0.0,0.0,95,0.00,,,0.41,0,Wunderground v.1.15,2013-08-09 01:38:00,
2013-08-08 21:44:00,73.5,72.0,30.00,North,360,0.0,0.0,95,0.00,,,0.41,0,Wunderground v.1.15,2013-08-09 01:44:00,
2013-08-08 21:50:00,73.5,72.0,30.00,North,360,0.0,0.0,95,0.00,,,0.41,0,Wunderground v.1.15,2013-08-09 01:50:00,
2013-08-08 21:56:00,73.5,72.0,30.00,North,360,0.0,0.0,95,0.00,,,0.41,0,Wunderground v.1.15,2013-08-09 01:56:00,
2013-08-08 22:02:00,73.5,72.0,30.00,North,360,0.0,0.0,95,0.00,,,0.41,0,Wunderground v.1.15,2013-08-09 02:02:00,
2013-08-08 22:08:00,73.5,72.3,30.00,North,360,0.0,0.0,96,0.00,,,0.41,0,Wunderground v.1.15,2013-08-09 02:08:00,
2013-08-08 22:14:00,73.5,72.3,30.00,North,360,0.0,0.0,96,0.00,,,0.41,0,Wunderground v.1.15,2013-08-09 02:14:00,
2013-08-08 22:20:00,73.5,72.3,30.00,North,360,0.0,0.0,96,0.00,,,0.41,0,Wunderground v.1.15,2013-08-09 02:20:00,
2013-08-08 22:25:00,73.5,72.3,30.00,North,360,0.0,0.0,96,0.00,,,0.41,0,Wunderground v.1.15,2013-08-09 02:25:00,
2013-08-08 22:34:00,73.5,72.3,30.00,North,360,0.0,0.0,96,0.00,,,0.41,0,Wunderground v.1.15,2013-08-09 02:34:00,
2013-08-08 22:45:00,73.5,72.3,30.00,North,360,0.0,0.0,96,0.00,,,0.41,0,Wunderground v.1.15,2013-08-09 02:45:00,
2013-08-08 22:53:00,73.5,72.3,30.00,North,360,0.0,0.0,96,0.00,,,0.41,0,Wunderground v.1.15,2013-08-09 02:53:00,
2013-08-08 23:02:00,73.7,72.5,30.00,North,360,0.0,0.0,96,0.00,,,0.41,0,Wunderground v.1.15,2013-08-09 03:02:00,
2013-08-08 23:09:00,73.7,72.5,30.00,North,360,0.0,0.0,96,0.00,,,0.41,0,Wunderground v.1.15,2013-08-09 03:09:00,
2013-08-08 23:15:00,73.7,72.5,30.00,North,360,0.0,0.0,96,0.00,,,0.41,0,Wunderground v.1.15,2013-08-09 03:15:00,
2013-08-08 23:23:00,73.7,72.5,30.00,NNE,18,0.0,0.0,96,0.00,,,0.41,0,Wunderground v.1.15,2013-08-09 03:23:00,
2013-08-08 23:29:00,73.5,72.3,30.00,NNE,18,0.0,0.0,96,0.00,,,0.41,0,Wunderground v.1.15,2013-08-09 03:29:00,
2013-08-08 23:37:00,73.3,72.1,30.00,North,360,0.0,2.0,96,0.00,,,0.41,0,Wunderground v.1.15,2013-08-09 03:37:00,
2013-08-08 23:43:00,73.2,72.0,30.00,North,360,0.0,0.0,96,0.00,,,0.41,0,Wunderground v.1.15,2013-08-09 03:43:00,
2013-08-08 23:53:00,73.2,72.0,29.99,North,360,0.0,0.0,96,0.00,,,0.41,0,Wunderground v.1.15,2013-08-09 03:53:00,
2013-08-08 23:59:00,73.0,71.8,29.99,North,360,0.0,1.0,96,0.00,,,0.41,0,Wunderground v.1.15,2013-08-09 03:59:00,